createdAt,value
2023-10-04T00:00:20.884Z,23
2023-10-04T00:01:35.446Z,24
2023-10-04T00:02:57.344Z,24
2023-10-04T00:04:20.361Z,23
2023-10-04T00:05:25.870Z,23
2023-10-04T00:06:51.196Z,24
2023-10-04T00:08:15.282Z,23
2023-10-04T00:09:36.605Z,22
2023-10-04T00:11:02.148Z,22
2023-10-04T00:12:24.855Z,22
2023-10-04T00:13:48.918Z,24
2023-10-04T00:15:09.282Z,24
2023-10-04T00:16:34.439Z,25
2023-10-04T00:17:58.416Z,24
2023-10-04T00:19:22.491Z,25
2023-10-04T00:20:35.473Z,24
2023-10-04T00:22:00.169Z,24
2023-10-04T00:23:17.401Z,23
2023-10-04T00:24:22.803Z,23
2023-10-04T00:25:44.425Z,23
2023-10-04T00:27:01.465Z,22
2023-10-04T00:28:22.335Z,22
2023-10-04T00:29:42.531Z,22
2023-10-04T00:31:03.084Z,22
2023-10-04T00:32:26.896Z,22
2023-10-04T00:33:39.534Z,22
2023-10-04T00:35:06.545Z,22
2023-10-04T00:36:31.874Z,23
2023-10-04T00:37:56.764Z,22
2023-10-04T00:39:20.893Z,22
2023-10-04T00:40:44.969Z,22
2023-10-04T00:42:09.160Z,22
2023-10-04T00:43:33.164Z,22
2023-10-04T00:45:00.338Z,22
2023-10-04T00:46:24.405Z,22
2023-10-04T00:47:48.573Z,22
2023-10-04T00:49:05.401Z,22
2023-10-04T00:50:26.316Z,20
2023-10-04T00:51:51.267Z,20
2023-10-04T00:53:15.369Z,22
2023-10-04T00:54:39.658Z,22
2023-10-04T00:55:59.722Z,23
2023-10-04T00:57:05.405Z,22
2023-10-04T00:58:25.844Z,20
2023-10-04T00:59:38.383Z,19
2023-10-04T01:01:02.496Z,19
2023-10-04T01:02:19.040Z,19
2023-10-04T01:03:45.392Z,20
2023-10-04T01:05:11.197Z,20
2023-10-04T01:06:35.281Z,20
2023-10-04T01:07:55.481Z,20
2023-10-04T01:09:11.921Z,22
2023-10-04T01:10:32.193Z,19
2023-10-04T01:11:52.431Z,20
2023-10-04T01:13:16.541Z,20
2023-10-04T01:14:29.340Z,20
2023-10-04T01:15:51.357Z,20
2023-10-04T01:17:15.446Z,20
2023-10-04T01:18:39.785Z,20
2023-10-04T01:20:03.790Z,20
2023-10-04T01:21:27.800Z,20
2023-10-04T01:22:51.842Z,20
2023-10-04T01:24:01.050Z,19
2023-10-04T01:25:26.316Z,19
2023-10-04T01:26:46.917Z,19
2023-10-04T01:28:11.163Z,19
2023-10-04T01:29:24.280Z,19
2023-10-04T01:30:42.050Z,19
2023-10-04T01:31:50.691Z,19
2023-10-04T01:36:36.186Z,19
2023-10-04T01:38:00.119Z,19
2023-10-04T01:39:20.487Z,18
2023-10-04T01:40:44.629Z,19
2023-10-04T01:42:08.623Z,18
2023-10-04T01:43:25.568Z,19
2023-10-04T01:44:42.426Z,20
2023-10-04T01:46:01.003Z,20
2023-10-04T01:47:30.195Z,20
2023-10-04T01:48:58.290Z,19
2023-10-04T01:50:24.342Z,19
2023-10-04T01:51:49.294Z,19
2023-10-04T01:53:13.771Z,19
2023-10-04T01:54:38.604Z,19
2023-10-04T01:56:02.598Z,19
2023-10-04T01:57:26.856Z,20
2023-10-04T01:58:46.916Z,21
2023-10-04T02:00:07.679Z,18
2023-10-04T02:01:32.347Z,20
2023-10-04T02:02:57.339Z,19
2023-10-04T02:04:21.604Z,19
2023-10-04T02:05:45.615Z,19
2023-10-04T02:06:54.868Z,19
2023-10-04T02:08:12.225Z,19
2023-10-04T02:09:38.835Z,19
2023-10-04T02:11:02.978Z,18
2023-10-04T02:12:28.478Z,19
2023-10-04T02:13:42.289Z,18
2023-10-04T02:15:06.838Z,18
2023-10-04T02:16:12.212Z,18
2023-10-04T02:17:38.133Z,17
2023-10-04T02:18:55.083Z,17
2023-10-04T02:20:19.198Z,15
2023-10-04T02:21:43.386Z,17
2023-10-04T02:23:07.400Z,16
2023-10-04T02:24:31.526Z,16
2023-10-04T02:25:44.866Z,16
2023-10-04T02:27:09.168Z,16
2023-10-04T02:28:33.474Z,15
2023-10-04T02:29:58.342Z,16
2023-10-04T02:31:18.724Z,16
2023-10-04T02:32:42.988Z,16
2023-10-04T02:33:59.728Z,15
2023-10-04T02:35:20.365Z,16
2023-10-04T02:36:44.461Z,16
2023-10-04T02:37:49.393Z,16
2023-10-04T02:39:09.719Z,17
2023-10-04T02:40:33.867Z,16
2023-10-04T02:41:57.821Z,16
2023-10-04T02:43:22.038Z,16
2023-10-04T02:44:42.166Z,17
2023-10-04T02:45:51.188Z,17
2023-10-04T02:47:13.302Z,17
2023-10-04T02:48:41.336Z,17
2023-10-04T02:50:07.365Z,17
2023-10-04T02:51:28.681Z,17
2023-10-04T02:52:55.711Z,16
2023-10-04T02:54:19.815Z,17
2023-10-04T02:55:33.138Z,16
2023-10-04T02:56:42.575Z,17
2023-10-04T02:58:07.159Z,17
2023-10-04T02:59:16.532Z,17
2023-10-04T03:00:41.445Z,17
2023-10-04T03:02:02.462Z,17
2023-10-04T03:03:07.829Z,17
2023-10-04T03:04:32.706Z,17
2023-10-04T03:05:58.447Z,17
2023-10-04T03:07:26.901Z,17
2023-10-04T03:08:51.494Z,19
2023-10-04T03:10:15.711Z,17
2023-10-04T03:11:29.092Z,17
2023-10-04T03:12:53.370Z,18
2023-10-04T03:14:17.419Z,17
2023-10-04T03:15:41.553Z,16
2023-10-04T03:17:01.876Z,16
2023-10-04T03:18:30.347Z,16
2023-10-04T03:19:44.163Z,16
2023-10-04T03:21:08.447Z,15
2023-10-04T03:22:29.743Z,16
2023-10-04T03:23:55.864Z,14
2023-10-04T03:25:22.108Z,15
2023-10-04T03:26:30.837Z,15
2023-10-04T03:27:55.732Z,15
2023-10-04T03:29:19.860Z,15
2023-10-04T03:30:44.015Z,16
2023-10-04T03:32:09.180Z,17
2023-10-04T03:33:34.782Z,17
2023-10-04T03:34:59.248Z,16
2023-10-04T03:36:23.753Z,16
2023-10-04T03:37:44.746Z,15
2023-10-04T03:39:08.735Z,15
2023-10-04T03:40:26.252Z,14
2023-10-04T03:41:50.247Z,14
2023-10-04T03:42:59.680Z,16
2023-10-04T03:44:26.296Z,15
2023-10-04T03:45:50.124Z,15
2023-10-04T03:47:02.718Z,15
2023-10-04T03:48:24.993Z,15
2023-10-04T03:49:41.973Z,15
2023-10-04T03:51:09.381Z,15
2023-10-04T03:52:25.329Z,14
2023-10-04T03:53:49.953Z,15
2023-10-04T03:55:14.158Z,16
2023-10-04T03:56:34.552Z,15
2023-10-04T03:57:54.588Z,16
2023-10-04T03:59:18.713Z,15
2023-10-04T04:00:39.121Z,15
2023-10-04T04:01:59.728Z,15
2023-10-04T04:03:13.261Z,14
2023-10-04T04:04:30.562Z,14
2023-10-04T04:05:53.563Z,15
2023-10-04T04:07:12.252Z,14
2023-10-04T04:08:37.388Z,13
2023-10-04T04:09:57.284Z,15
2023-10-04T04:11:17.567Z,15
2023-10-04T04:12:37.900Z,13
2023-10-04T04:13:58.358Z,15
2023-10-04T04:15:24.226Z,15
2023-10-04T04:16:37.587Z,15
2023-10-04T04:17:58.466Z,15
2023-10-04T04:19:25.494Z,15
2023-10-04T04:20:34.802Z,16
2023-10-04T04:22:01.081Z,16
2023-10-04T04:23:26.972Z,17
2023-10-04T04:24:51.173Z,16
2023-10-04T04:26:15.474Z,14
2023-10-04T04:27:40.913Z,14
2023-10-04T04:29:05.729Z,16
2023-10-04T04:30:31.668Z,15
2023-10-04T04:31:49.523Z,15
2023-10-04T04:33:06.377Z,15
2023-10-04T04:34:15.227Z,14
2023-10-04T04:35:36.466Z,15
2023-10-04T04:36:56.638Z,14
2023-10-04T04:38:16.799Z,14
2023-10-04T04:39:37.116Z,14
2023-10-04T04:40:49.784Z,14
2023-10-04T04:42:09.970Z,14
2023-10-04T04:43:26.941Z,14
2023-10-04T04:44:43.764Z,13
2023-10-04T04:46:03.994Z,14
2023-10-04T04:47:26.879Z,12
2023-10-04T04:48:48.075Z,13
2023-10-04T04:50:09.131Z,13
2023-10-04T04:51:21.707Z,13
2023-10-04T04:52:30.575Z,12
2023-10-04T04:53:43.980Z,12
2023-10-04T04:55:13.073Z,11
2023-10-04T04:56:29.414Z,12
2023-10-04T04:57:49.693Z,12
2023-10-04T04:59:02.917Z,12
2023-10-04T05:00:24.028Z,12
2023-10-04T05:01:33.358Z,12
2023-10-04T05:02:50.003Z,12
2023-10-04T05:03:51.755Z,12
2023-10-04T05:04:56.737Z,12
2023-10-04T05:05:58.590Z,12
2023-10-04T05:07:03.660Z,12
2023-10-04T05:08:05.752Z,12
2023-10-04T05:09:07.698Z,12
2023-10-04T05:10:12.299Z,12
2023-10-04T05:11:13.286Z,12
2023-10-04T05:12:18.023Z,12
2023-10-04T05:13:19.090Z,12
2023-10-04T05:14:24.113Z,11
2023-10-04T05:15:24.982Z,12
2023-10-04T05:16:33.669Z,12
2023-10-04T05:17:34.669Z,12
2023-10-04T05:18:43.362Z,11
2023-10-04T05:19:48.570Z,12
2023-10-04T05:20:54.265Z,12
2023-10-04T05:21:58.887Z,11
2023-10-04T05:23:08.903Z,11
2023-10-04T05:24:22.245Z,11
2023-10-04T05:25:28.367Z,12
2023-10-04T05:26:42.878Z,9
2023-10-04T05:27:54.400Z,9
2023-10-04T05:29:07.478Z,9
2023-10-04T05:30:14.076Z,9
2023-10-04T05:31:26.547Z,11
2023-10-04T05:32:30.146Z,9
2023-10-04T05:33:39.788Z,9
2023-10-04T05:35:00.782Z,11
2023-10-04T05:36:10.529Z,11
2023-10-04T05:37:18.943Z,11
2023-10-04T05:38:20.523Z,10
2023-10-04T05:39:31.754Z,11
2023-10-04T05:40:36.483Z,11
2023-10-04T05:41:42.655Z,11
2023-10-04T05:42:48.396Z,9
2023-10-04T05:43:53.052Z,9
2023-10-04T05:45:02.047Z,9
2023-10-04T05:46:10.508Z,11
2023-10-04T05:47:19.319Z,8
2023-10-04T05:48:21.036Z,9
2023-10-04T05:49:28.887Z,8
2023-10-04T05:50:33.966Z,9
2023-10-04T05:51:40.802Z,9
2023-10-04T05:52:49.398Z,8
2023-10-04T05:53:58.282Z,8
2023-10-04T05:55:06.832Z,9
2023-10-04T05:56:12.731Z,8
2023-10-04T05:57:21.689Z,8
2023-10-04T05:58:27.572Z,8
2023-10-04T05:59:37.069Z,8
2023-10-04T06:00:38.687Z,9
2023-10-04T06:01:47.657Z,8
2023-10-04T06:02:52.538Z,9
2023-10-04T06:03:54.002Z,8
2023-10-04T06:05:11.900Z,9
2023-10-04T06:06:18.667Z,9
2023-10-04T06:07:27.958Z,8
2023-10-04T06:08:52.583Z,8
2023-10-04T06:10:17.268Z,9
2023-10-04T06:11:34.124Z,9
2023-10-04T06:12:54.814Z,8
2023-10-04T06:13:56.886Z,9
2023-10-04T06:15:10.036Z,9
2023-10-04T06:16:15.083Z,9
2023-10-04T06:17:31.577Z,11
2023-10-04T06:18:37.126Z,11
2023-10-04T06:19:42.400Z,9
2023-10-04T06:20:55.488Z,9
2023-10-04T06:21:56.533Z,11
2023-10-04T06:23:01.751Z,11
2023-10-04T06:24:14.866Z,9
2023-10-04T06:25:19.958Z,11
2023-10-04T06:26:23.154Z,11
2023-10-04T06:27:36.373Z,9
2023-10-04T06:29:07.826Z,11
2023-10-04T06:30:17.810Z,9
2023-10-04T06:31:21.322Z,11
2023-10-04T06:32:33.976Z,11
2023-10-04T06:33:54.691Z,11
2023-10-04T06:34:58.180Z,9
2023-10-04T06:36:15.968Z,9
2023-10-04T06:37:33.118Z,9
2023-10-04T06:38:38.201Z,9
2023-10-04T06:39:39.095Z,11
2023-10-04T06:40:40.248Z,9
2023-10-04T06:41:49.023Z,9
2023-10-04T06:42:50.881Z,11
2023-10-04T06:43:56.984Z,8
2023-10-04T06:45:02.475Z,8
2023-10-04T06:46:15.354Z,8
2023-10-04T06:47:36.666Z,8
2023-10-04T06:48:57.601Z,8
2023-10-04T06:50:15.113Z,8
2023-10-04T06:51:29.978Z,8
2023-10-04T06:52:43.207Z,8
2023-10-04T06:54:06.400Z,8
2023-10-04T06:55:24.248Z,7
2023-10-04T06:56:49.253Z,7
2023-10-04T06:58:14.258Z,6
2023-10-04T06:59:39.113Z,8
2023-10-04T07:00:56.525Z,8
2023-10-04T07:02:09.016Z,7
2023-10-04T07:03:34.265Z,7
2023-10-04T07:04:59.245Z,7
2023-10-04T07:06:23.477Z,7
2023-10-04T07:07:44.832Z,7
2023-10-04T07:09:08.955Z,6
2023-10-04T07:10:30.648Z,7
2023-10-04T07:11:46.045Z,7
2023-10-04T07:13:12.628Z,7
2023-10-04T07:14:39.516Z,7
2023-10-04T07:16:03.617Z,6
2023-10-04T07:17:21.064Z,7
2023-10-04T07:18:44.547Z,7
2023-10-04T07:19:56.107Z,6
2023-10-04T07:21:21.566Z,6
2023-10-04T07:22:45.709Z,7
2023-10-04T07:24:09.961Z,7
2023-10-04T07:25:24.500Z,7
2023-10-04T07:26:50.469Z,7
2023-10-04T07:27:59.372Z,7
2023-10-04T07:29:20.580Z,6
2023-10-04T07:30:33.448Z,6
2023-10-04T07:33:07.923Z,6
2023-10-04T07:34:17.267Z,6
2023-10-04T07:35:34.401Z,7
2023-10-04T07:36:59.070Z,7
2023-10-04T07:38:11.540Z,6
2023-10-04T07:39:24.249Z,7
2023-10-04T07:40:33.636Z,6
2023-10-04T07:41:58.899Z,7
2023-10-04T07:43:15.714Z,7
2023-10-04T07:44:36.973Z,6
2023-10-04T07:46:01.825Z,7
2023-10-04T07:47:25.994Z,8
2023-10-04T07:48:50.351Z,8
2023-10-04T07:50:15.134Z,6
2023-10-04T07:51:31.599Z,6
2023-10-04T07:52:44.055Z,6
2023-10-04T07:53:57.202Z,5
2023-10-04T07:55:14.000Z,5
2023-10-04T07:56:34.006Z,5
2023-10-04T07:58:00.380Z,5
2023-10-04T07:59:18.285Z,6
2023-10-04T08:00:43.082Z,7
2023-10-04T08:02:02.649Z,7
2023-10-04T08:03:16.089Z,6
2023-10-04T08:04:41.863Z,6
2023-10-04T08:06:02.357Z,6
2023-10-04T08:07:19.389Z,6
2023-10-04T08:08:41.713Z,6
2023-10-04T08:09:58.633Z,6
2023-10-04T08:11:23.498Z,6
2023-10-04T08:12:48.462Z,6
2023-10-04T08:14:00.766Z,6
2023-10-04T08:15:15.454Z,4
2023-10-04T08:16:28.857Z,4
2023-10-04T08:17:50.454Z,5
2023-10-04T08:19:07.425Z,5
2023-10-04T08:20:33.831Z,5
2023-10-04T08:21:50.849Z,5
2023-10-04T08:22:56.318Z,7
2023-10-04T08:24:21.205Z,7
2023-10-04T08:25:42.038Z,6
2023-10-04T08:27:03.028Z,6
2023-10-04T08:28:16.386Z,6
2023-10-04T08:29:37.907Z,6
2023-10-04T08:30:56.796Z,5
2023-10-04T08:32:13.447Z,5
2023-10-04T08:33:40.951Z,5
2023-10-04T08:35:02.332Z,6
2023-10-04T08:36:32.045Z,7
2023-10-04T08:37:57.459Z,6
2023-10-04T08:39:18.713Z,6
2023-10-04T08:40:40.194Z,6
2023-10-04T08:42:03.770Z,6
2023-10-04T08:43:41.048Z,5
2023-10-04T08:45:05.262Z,6
2023-10-04T08:46:21.855Z,6
2023-10-04T08:47:35.571Z,6
2023-10-04T08:48:52.212Z,6
2023-10-04T08:50:05.487Z,5
2023-10-04T08:51:23.829Z,6
2023-10-04T08:52:44.232Z,6
2023-10-04T08:54:09.177Z,6
2023-10-04T08:55:32.357Z,5
2023-10-04T08:56:53.930Z,6
2023-10-04T08:58:18.870Z,7
2023-10-04T08:59:37.159Z,6
2023-10-04T09:00:57.378Z,6
2023-10-04T09:02:25.005Z,6
2023-10-04T09:03:41.877Z,5
2023-10-04T09:04:54.730Z,6
2023-10-04T09:06:11.579Z,6
2023-10-04T09:07:46.784Z,5
2023-10-04T09:09:15.678Z,5
2023-10-04T09:10:41.181Z,6
2023-10-04T09:11:55.530Z,6
2023-10-04T09:13:17.862Z,6
2023-10-04T09:14:30.919Z,6
2023-10-04T09:15:51.685Z,6
2023-10-04T09:17:04.583Z,6
2023-10-04T09:18:29.682Z,5
2023-10-04T09:19:41.914Z,6
2023-10-04T09:20:54.698Z,5
2023-10-04T09:22:19.717Z,6
2023-10-04T09:23:41.911Z,7
2023-10-04T09:25:03.544Z,6
2023-10-04T09:26:24.657Z,7
2023-10-04T09:27:49.590Z,7
2023-10-04T09:29:14.808Z,7
2023-10-04T09:30:40.732Z,7
2023-10-04T09:32:15.982Z,8
2023-10-04T09:33:43.487Z,7
2023-10-04T09:35:03.981Z,7
2023-10-04T09:36:21.202Z,6
2023-10-04T09:37:35.041Z,5
2023-10-04T09:38:57.513Z,5
2023-10-04T09:40:21.229Z,6
2023-10-04T09:41:42.770Z,6
2023-10-04T09:43:08.233Z,6
2023-10-04T09:44:28.335Z,7
2023-10-04T09:45:51.117Z,6
2023-10-04T09:47:11.861Z,6
2023-10-04T09:48:43.266Z,5
2023-10-04T09:50:05.758Z,6
2023-10-04T09:51:37.720Z,5
2023-10-04T09:53:02.412Z,6
2023-10-04T09:54:22.682Z,6
2023-10-04T09:55:46.861Z,7
2023-10-04T09:57:11.796Z,7
2023-10-04T09:58:32.643Z,8
2023-10-04T10:00:03.359Z,7
2023-10-04T10:01:29.522Z,7
2023-10-04T10:02:42.103Z,6
2023-10-04T10:04:06.185Z,6
2023-10-04T10:05:30.178Z,6
2023-10-04T10:06:44.230Z,6
2023-10-04T10:08:08.928Z,5
2023-10-04T10:09:35.234Z,6
2023-10-04T10:10:55.285Z,6
2023-10-04T10:12:00.160Z,6
2023-10-04T10:13:38.363Z,6
2023-10-04T10:15:05.471Z,6
2023-10-04T10:16:29.566Z,7
2023-10-04T10:17:54.641Z,7
2023-10-04T10:19:19.117Z,7
2023-10-04T10:20:43.894Z,6
2023-10-04T10:22:00.485Z,7
2023-10-04T10:23:25.272Z,8
2023-10-04T10:24:50.081Z,7
2023-10-04T10:26:15.007Z,6
2023-10-04T10:27:27.601Z,7
2023-10-04T10:28:52.491Z,7
2023-10-04T10:30:21.583Z,7
2023-10-04T10:31:45.534Z,7
2023-10-04T10:33:12.033Z,6
2023-10-04T10:34:27.337Z,6
2023-10-04T10:35:43.916Z,6
2023-10-04T10:37:05.238Z,7
2023-10-04T10:38:10.769Z,7
2023-10-04T10:39:37.306Z,7
2023-10-04T10:40:58.543Z,7
2023-10-04T10:42:07.762Z,7
2023-10-04T10:43:33.335Z,8
2023-10-04T10:44:42.931Z,8
2023-10-04T10:46:08.220Z,8
2023-10-04T10:47:29.431Z,7
2023-10-04T10:48:54.334Z,8
2023-10-04T10:50:19.149Z,7
2023-10-04T10:51:43.452Z,7
2023-10-04T10:53:10.636Z,8
2023-10-04T10:54:32.062Z,8
2023-10-04T10:55:56.729Z,7
2023-10-04T10:57:21.206Z,5
2023-10-04T10:58:47.226Z,6
2023-10-04T11:00:12.193Z,6
2023-10-04T11:01:36.666Z,6
2023-10-04T11:03:01.936Z,7
2023-10-04T11:04:26.561Z,7
2023-10-04T11:05:50.654Z,7
2023-10-04T11:07:05.226Z,7
2023-10-04T11:08:25.812Z,8
2023-10-04T11:09:43.231Z,9
2023-10-04T11:10:46.772Z,7
2023-10-04T11:11:55.737Z,6
2023-10-04T11:13:19.775Z,6
2023-10-04T11:14:43.887Z,6
2023-10-04T11:16:10.441Z,7
2023-10-04T11:17:18.951Z,7
2023-10-04T11:18:44.494Z,6
2023-10-04T11:20:07.128Z,5
2023-10-04T11:21:35.225Z,5
2023-10-04T11:22:55.824Z,6
2023-10-04T11:24:21.685Z,7
2023-10-04T11:25:45.776Z,7
2023-10-04T11:27:13.780Z,8
2023-10-04T11:28:38.840Z,7
2023-10-04T11:29:47.737Z,8
2023-10-04T11:31:11.931Z,8
2023-10-04T11:32:36.080Z,8
2023-10-04T11:34:01.306Z,7
2023-10-04T11:35:07.193Z,7
2023-10-04T11:36:36.042Z,7
2023-10-04T11:37:52.478Z,6
2023-10-04T11:39:16.369Z,7
2023-10-04T11:40:21.720Z,7
2023-10-04T11:41:35.118Z,8
2023-10-04T11:42:56.161Z,7
2023-10-04T11:44:00.948Z,8
2023-10-04T11:45:25.423Z,7
2023-10-04T11:46:37.740Z,6
2023-10-04T11:48:05.134Z,7
2023-10-04T11:49:29.825Z,7
2023-10-04T11:50:53.990Z,7
2023-10-04T11:52:14.656Z,8
2023-10-04T11:53:36.324Z,8
2023-10-04T11:54:53.215Z,7
2023-10-04T11:56:18.140Z,6
2023-10-04T11:57:46.471Z,8
2023-10-04T11:59:07.514Z,8
2023-10-04T12:00:28.075Z,7
2023-10-04T12:01:49.317Z,8
2023-10-04T12:03:16.015Z,7
2023-10-04T12:04:39.220Z,7
2023-10-04T12:06:03.935Z,7
2023-10-04T12:07:28.510Z,7
2023-10-04T12:08:33.642Z,7
2023-10-04T12:09:59.707Z,8
2023-10-04T12:11:22.212Z,8
2023-10-04T12:12:46.745Z,8
2023-10-04T12:14:03.351Z,6
2023-10-04T12:15:25.373Z,6
2023-10-04T12:16:49.611Z,6
2023-10-04T12:18:10.287Z,5
2023-10-04T12:19:35.433Z,7
2023-10-04T12:21:00.104Z,7
2023-10-04T12:22:24.133Z,8
2023-10-04T12:23:48.311Z,8
2023-10-04T12:25:13.744Z,7
2023-10-04T12:26:38.710Z,7
2023-10-04T12:28:03.957Z,8
2023-10-04T12:29:28.714Z,8
2023-10-04T12:30:49.683Z,7
2023-10-04T12:32:06.858Z,8
2023-10-04T12:33:37.044Z,8
2023-10-04T12:35:03.173Z,9
2023-10-04T12:36:23.981Z,8
2023-10-04T12:37:48.160Z,6
2023-10-04T12:39:12.112Z,6
2023-10-04T12:40:25.729Z,7
2023-10-04T12:41:38.379Z,8
2023-10-04T12:42:58.878Z,7
2023-10-04T12:44:24.758Z,8
2023-10-04T12:45:41.421Z,9
2023-10-04T12:47:06.136Z,11
2023-10-04T12:48:11.099Z,9
2023-10-04T12:49:35.057Z,9
2023-10-04T12:50:55.877Z,8
2023-10-04T12:52:23.712Z,7
2023-10-04T12:53:48.708Z,7
2023-10-04T12:55:12.938Z,7
2023-10-04T12:56:40.707Z,7
2023-10-04T12:58:05.989Z,6
2023-10-04T12:59:34.067Z,6
2023-10-04T13:00:58.338Z,6
2023-10-04T13:02:23.329Z,7
2023-10-04T13:03:47.742Z,7
2023-10-04T13:05:05.026Z,8
2023-10-04T13:06:31.984Z,8
2023-10-04T13:07:56.131Z,8
2023-10-04T13:09:22.165Z,7
2023-10-04T13:10:38.645Z,7
2023-10-04T13:12:09.935Z,7
2023-10-04T13:13:35.044Z,7
2023-10-04T13:15:02.977Z,7
2023-10-04T13:16:28.023Z,8
2023-10-04T13:17:37.415Z,8
2023-10-04T13:19:06.367Z,8
2023-10-04T13:20:31.255Z,7
2023-10-04T13:21:48.762Z,7
2023-10-04T13:23:04.361Z,7
2023-10-04T13:24:23.688Z,8
2023-10-04T13:25:43.182Z,8
2023-10-04T13:27:07.901Z,8
2023-10-04T13:28:33.608Z,9
2023-10-04T13:29:58.131Z,8
2023-10-04T13:31:24.154Z,8
2023-10-04T13:32:33.014Z,8
2023-10-04T13:34:02.012Z,7
2023-10-04T13:35:36.958Z,7
2023-10-04T13:36:41.790Z,8
2023-10-04T13:38:05.934Z,8
2023-10-04T13:39:30.117Z,8
2023-10-04T13:40:55.220Z,8
2023-10-04T13:42:28.599Z,6
2023-10-04T13:43:47.711Z,7
2023-10-04T13:45:18.971Z,7
2023-10-04T13:46:49.537Z,8
2023-10-04T13:48:18.978Z,8
2023-10-04T13:49:43.740Z,7
2023-10-04T13:51:10.276Z,7
2023-10-04T13:52:38.773Z,8
2023-10-04T13:54:04.324Z,7
2023-10-04T13:55:35.122Z,7
2023-10-04T13:56:59.772Z,7
2023-10-04T13:58:26.300Z,6
2023-10-04T13:59:50.811Z,8
2023-10-04T14:01:18.933Z,8
2023-10-04T14:02:53.732Z,9
2023-10-04T14:04:17.781Z,7
2023-10-04T14:05:41.962Z,8
2023-10-04T14:07:08.774Z,7
2023-10-04T14:08:34.373Z,7
2023-10-04T14:09:51.041Z,8
2023-10-04T14:11:19.072Z,9
2023-10-04T14:12:45.836Z,8
2023-10-04T14:14:11.027Z,8
2023-10-04T14:15:36.867Z,8
2023-10-04T14:16:57.545Z,8
2023-10-04T14:18:09.906Z,8
2023-10-04T14:19:25.185Z,8
2023-10-04T14:20:49.632Z,8
2023-10-04T14:22:24.171Z,9
2023-10-04T14:23:49.987Z,9
2023-10-04T14:25:16.435Z,8
2023-10-04T14:26:41.273Z,9
2023-10-04T14:28:05.701Z,9
2023-10-04T14:29:11.763Z,9
2023-10-04T14:30:38.338Z,9
2023-10-04T14:32:03.624Z,9
2023-10-04T14:33:28.410Z,8
2023-10-04T14:34:51.793Z,8
2023-10-04T14:36:02.197Z,8
2023-10-04T14:37:16.905Z,7
2023-10-04T14:38:42.042Z,8
2023-10-04T14:40:06.667Z,9
2023-10-04T14:41:31.347Z,8
2023-10-04T14:42:37.246Z,9
2023-10-04T14:44:04.397Z,8
2023-10-04T14:45:28.588Z,8
2023-10-04T14:46:34.245Z,9
2023-10-04T14:48:03.801Z,8
2023-10-04T14:49:29.398Z,8
2023-10-04T14:50:42.504Z,8
2023-10-04T14:52:07.664Z,8
2023-10-04T14:53:33.075Z,8
2023-10-04T14:54:57.233Z,-1
2023-10-04T14:56:24.369Z,8
2023-10-04T14:57:50.736Z,8
2023-10-04T14:59:18.531Z,11
2023-10-04T15:00:43.054Z,8
2023-10-04T15:02:08.744Z,9
2023-10-04T15:03:34.888Z,8
2023-10-04T15:04:43.783Z,9
2023-10-04T15:06:06.552Z,9
2023-10-04T15:07:31.160Z,8
2023-10-04T15:08:55.316Z,6
2023-10-04T15:10:20.917Z,7
2023-10-04T15:11:41.682Z,7
2023-10-04T15:13:06.536Z,6
2023-10-04T15:14:30.791Z,7
2023-10-04T15:16:02.399Z,6
2023-10-04T15:17:18.022Z,6
2023-10-04T15:18:43.052Z,6
2023-10-04T15:20:08.343Z,6
2023-10-04T15:21:32.805Z,6
2023-10-04T15:23:00.298Z,7
2023-10-04T15:24:25.988Z,7
2023-10-04T15:25:50.815Z,6
2023-10-04T15:27:15.822Z,6
2023-10-04T15:28:28.193Z,6
2023-10-04T15:29:52.360Z,6
2023-10-04T15:31:16.573Z,6
2023-10-04T15:32:41.689Z,6
2023-10-04T15:34:06.018Z,7
2023-10-04T15:35:30.838Z,7
2023-10-04T15:36:56.043Z,6
2023-10-04T15:38:09.400Z,6
2023-10-04T15:39:39.088Z,6
2023-10-04T15:41:05.658Z,6
2023-10-04T15:42:30.035Z,6
2023-10-04T15:43:54.844Z,7
2023-10-04T15:45:04.365Z,7
2023-10-04T15:46:31.855Z,6
2023-10-04T15:47:55.947Z,7
2023-10-04T15:49:21.059Z,6
2023-10-04T15:50:46.099Z,6
2023-10-04T15:52:11.197Z,6
2023-10-04T15:53:36.608Z,6
2023-10-04T15:55:01.321Z,6
2023-10-04T15:56:27.138Z,6
2023-10-04T15:57:51.558Z,7
2023-10-04T15:59:15.741Z,8
2023-10-04T16:00:39.036Z,7
2023-10-04T16:02:05.135Z,7
2023-10-04T16:03:29.744Z,7
2023-10-04T16:04:58.072Z,6
2023-10-04T16:06:10.953Z,6
2023-10-04T16:07:21.085Z,7
2023-10-04T16:08:46.019Z,6
2023-10-04T16:10:10.807Z,6
2023-10-04T16:11:34.828Z,6
2023-10-04T16:12:59.185Z,6
2023-10-04T16:14:23.748Z,6
2023-10-04T16:15:48.185Z,6
2023-10-04T16:16:56.929Z,6
2023-10-04T16:18:21.018Z,7
2023-10-04T16:19:29.742Z,6
2023-10-04T16:20:56.708Z,5
2023-10-04T16:22:22.384Z,5
2023-10-04T16:23:47.234Z,5
2023-10-04T16:25:12.091Z,5
2023-10-04T16:26:17.695Z,7
2023-10-04T16:27:45.090Z,6
2023-10-04T16:28:50.741Z,5
2023-10-04T16:30:18.979Z,5
2023-10-04T16:31:24.590Z,6
2023-10-04T16:32:52.113Z,5
2023-10-04T16:34:25.268Z,6
2023-10-04T16:35:50.183Z,6
2023-10-04T16:37:14.369Z,7
2023-10-04T16:38:38.393Z,5
2023-10-04T16:40:02.946Z,6
2023-10-04T16:41:28.987Z,7
2023-10-04T16:42:53.634Z,7
2023-10-04T16:44:20.754Z,7
2023-10-04T16:45:45.013Z,5
2023-10-04T16:47:05.770Z,7
2023-10-04T16:48:15.360Z,5
2023-10-04T16:49:40.056Z,6
2023-10-04T16:51:04.290Z,5
2023-10-04T16:52:29.158Z,6
2023-10-04T16:53:54.261Z,6
2023-10-04T16:54:59.807Z,6
2023-10-04T16:56:24.973Z,6
2023-10-04T16:57:31.108Z,6
2023-10-04T16:58:57.572Z,6
2023-10-04T17:00:20.966Z,6
2023-10-04T17:01:45.615Z,6
2023-10-04T17:02:57.977Z,5
2023-10-04T17:04:22.340Z,7
2023-10-04T17:05:32.917Z,7
2023-10-04T17:06:56.049Z,7
2023-10-04T17:08:21.454Z,7
2023-10-04T17:09:46.225Z,8
2023-10-04T17:11:11.126Z,7
2023-10-04T17:12:35.620Z,6
2023-10-04T17:14:00.440Z,7
2023-10-04T17:15:24.513Z,7
2023-10-04T17:16:48.810Z,7
2023-10-04T17:18:13.904Z,8
2023-10-04T17:19:38.130Z,8
2023-10-04T17:20:53.077Z,8
2023-10-04T17:22:17.775Z,7
2023-10-04T17:23:41.740Z,8
2023-10-04T17:25:05.820Z,7
2023-10-04T17:26:29.986Z,7
2023-10-04T17:27:40.107Z,7
2023-10-04T17:29:04.731Z,8
2023-10-04T17:30:28.716Z,8
2023-10-04T17:31:50.788Z,8
2023-10-04T17:32:59.920Z,8
2023-10-04T17:34:23.796Z,8
2023-10-04T17:35:50.070Z,8
2023-10-04T17:37:17.961Z,8
2023-10-04T17:38:43.110Z,8
2023-10-04T17:40:09.450Z,8
2023-10-04T17:41:31.254Z,7
2023-10-04T17:42:58.746Z,8
2023-10-04T17:44:11.909Z,7
2023-10-04T17:45:36.293Z,7
2023-10-04T17:47:00.374Z,7
2023-10-04T17:48:24.757Z,7
2023-10-04T17:49:49.701Z,6
2023-10-04T17:51:15.658Z,7
2023-10-04T17:52:40.207Z,7
2023-10-04T17:53:50.407Z,6
2023-10-04T17:55:17.101Z,7
2023-10-04T17:56:43.221Z,6
2023-10-04T17:58:14.047Z,7
2023-10-04T17:59:40.503Z,7
2023-10-04T18:00:53.926Z,7
2023-10-04T18:02:18.678Z,8
2023-10-04T18:03:27.526Z,7
2023-10-04T18:04:54.760Z,8
2023-10-04T18:06:20.921Z,7
2023-10-04T18:07:45.618Z,8
2023-10-04T18:09:10.521Z,8
2023-10-04T18:10:34.777Z,7
2023-10-04T18:11:58.865Z,7
2023-10-04T18:13:24.689Z,7
2023-10-04T18:14:49.064Z,7
2023-10-04T18:16:13.341Z,8
2023-10-04T18:17:37.282Z,9
2023-10-04T18:19:01.702Z,8
2023-10-04T18:20:28.235Z,8
2023-10-04T18:21:54.902Z,9
2023-10-04T18:23:20.796Z,9
2023-10-04T18:24:44.985Z,11
2023-10-04T18:26:09.100Z,11
2023-10-04T18:27:14.201Z,9
2023-10-04T18:28:43.131Z,9
2023-10-04T18:29:52.538Z,8
2023-10-04T18:31:19.153Z,9
2023-10-04T18:32:50.586Z,11
2023-10-04T18:34:19.367Z,9
2023-10-04T18:35:40.317Z,9
2023-10-04T18:37:08.438Z,9
2023-10-04T18:38:33.293Z,9
2023-10-04T18:39:59.067Z,8
2023-10-04T18:41:24.580Z,9
2023-10-04T18:42:48.851Z,11
2023-10-04T18:44:12.792Z,11
2023-10-04T18:45:21.798Z,9
2023-10-04T18:46:46.893Z,9
2023-10-04T18:48:15.020Z,9
2023-10-04T18:49:21.205Z,9
2023-10-04T18:50:51.142Z,8
2023-10-04T18:52:08.113Z,8
2023-10-04T18:53:32.147Z,9
2023-10-04T18:54:56.851Z,8
2023-10-04T18:58:23.942Z,11
2023-10-04T19:00:07.442Z,8
2023-10-04T19:01:31.728Z,8
2023-10-04T19:02:56.856Z,8
2023-10-04T19:04:22.161Z,9
2023-10-04T19:05:46.923Z,9
2023-10-04T19:06:59.565Z,9
2023-10-04T19:08:24.770Z,9
2023-10-04T19:09:47.570Z,9
2023-10-04T19:11:12.438Z,8
2023-10-04T19:12:38.777Z,8
2023-10-04T19:14:02.968Z,9
2023-10-04T19:15:08.751Z,8
2023-10-04T19:16:33.033Z,9
2023-10-04T19:17:58.069Z,9
2023-10-04T19:19:26.849Z,8
2023-10-04T19:20:51.967Z,9
2023-10-04T19:22:09.093Z,9
2023-10-04T19:23:37.582Z,9
2023-10-04T19:25:02.795Z,8
2023-10-04T19:26:28.348Z,9
2023-10-04T19:27:42.315Z,9
2023-10-04T19:28:55.056Z,9
2023-10-04T19:30:08.937Z,9
2023-10-04T19:31:35.570Z,11
2023-10-04T19:33:03.866Z,9
2023-10-04T19:34:27.815Z,9
2023-10-04T19:35:51.896Z,9
2023-10-04T19:37:16.973Z,9
2023-10-04T19:38:26.456Z,9
2023-10-04T19:39:52.916Z,9
2023-10-04T19:41:16.774Z,9